createdAt,value
2023-04-11T00:01:15.449Z,5.20
2023-04-11T00:03:48.081Z,5.21
2023-04-11T00:06:20.889Z,5.23
2023-04-11T00:08:53.481Z,5.25
2023-04-11T00:11:26.074Z,5.23
2023-04-11T00:13:58.469Z,5.23
2023-04-11T00:16:33.181Z,5.26
2023-04-11T00:19:06.773Z,5.26
2023-04-11T00:21:39.208Z,5.28
2023-04-11T00:24:11.601Z,5.36
2023-04-11T00:26:43.923Z,5.38
2023-04-11T00:29:16.262Z,5.43
2023-04-11T00:31:49.265Z,5.41
2023-04-11T00:34:21.842Z,5.46
2023-04-11T00:36:54.510Z,5.40
2023-04-11T00:39:29.653Z,5.40
2023-04-11T00:42:05.774Z,5.43
2023-04-11T00:44:39.519Z,5.29
2023-04-11T00:47:13.515Z,5.38
2023-04-11T00:49:45.860Z,5.41
2023-04-11T00:52:19.004Z,5.40
2023-04-11T00:54:51.511Z,5.35
2023-04-11T00:57:25.307Z,5.17
2023-04-11T01:00:00.405Z,5.26
2023-04-11T01:02:33.698Z,5.20
2023-04-11T01:05:07.309Z,5.26
2023-04-11T01:07:45.522Z,5.37
2023-04-11T01:10:18.866Z,5.33
2023-04-11T01:12:51.698Z,5.38
2023-04-11T01:15:24.177Z,5.32
2023-04-11T01:18:01.233Z,5.29
2023-04-11T01:20:33.872Z,5.22
2023-04-11T01:23:08.935Z,5.24
2023-04-11T01:25:42.606Z,5.21
2023-04-11T01:28:15.964Z,5.19
2023-04-11T01:30:48.385Z,5.13
2023-04-11T01:33:20.808Z,5.14
2023-04-11T01:35:53.904Z,5.23
2023-04-11T01:38:26.530Z,5.31
2023-04-11T01:41:00.352Z,5.21
2023-04-11T01:43:33.013Z,5.14
2023-04-11T01:46:06.951Z,5.12
2023-04-11T01:48:39.343Z,5.16
2023-04-11T01:51:11.911Z,5.21
2023-04-11T01:53:46.567Z,5.25
2023-04-11T01:56:19.658Z,5.29
2023-04-11T01:58:52.351Z,5.30
2023-04-11T02:01:25.468Z,5.31
2023-04-11T02:03:58.107Z,5.38
2023-04-11T02:06:31.459Z,5.39
2023-04-11T02:09:04.052Z,5.39
2023-04-11T02:11:37.209Z,5.38
2023-04-11T02:14:09.527Z,5.29
2023-04-11T02:16:51.905Z,5.06
2023-04-11T02:19:25.410Z,5.17
2023-04-11T02:21:57.790Z,5.15
2023-04-11T02:24:30.204Z,5.05
2023-04-11T02:27:03.639Z,5.02
2023-04-11T02:29:36.245Z,4.96
2023-04-11T02:32:08.673Z,4.95
2023-04-11T02:34:41.055Z,4.89
2023-04-11T02:37:13.374Z,4.81
2023-04-11T02:39:45.690Z,4.80
2023-04-11T02:42:18.599Z,4.81
2023-04-11T02:44:53.885Z,4.76
2023-04-11T02:47:26.326Z,4.64
2023-04-11T02:50:01.107Z,4.76
2023-04-11T02:52:41.566Z,4.80
2023-04-11T02:55:15.389Z,4.75
2023-04-11T02:57:48.635Z,4.76
2023-04-11T03:00:24.160Z,4.73
2023-04-11T03:03:05.930Z,4.78
2023-04-11T03:05:43.583Z,4.67
2023-04-11T03:08:17.149Z,4.66
2023-04-11T03:10:55.779Z,4.74
2023-04-11T03:13:30.747Z,4.74
2023-04-11T03:16:03.484Z,4.60
2023-04-11T03:18:37.498Z,4.57
2023-04-11T03:21:13.509Z,4.67
2023-04-11T03:23:49.722Z,4.71
2023-04-11T03:26:26.458Z,4.72
2023-04-11T03:29:02.579Z,4.81
2023-04-11T03:31:40.874Z,4.84
2023-04-11T03:34:13.403Z,4.83
2023-04-11T03:36:47.078Z,4.86
2023-04-11T03:39:21.041Z,4.79
2023-04-11T03:41:54.402Z,4.81
2023-04-11T03:44:27.432Z,4.73
2023-04-11T03:47:01.005Z,4.70
2023-04-11T03:49:41.116Z,4.72
2023-04-11T03:52:16.772Z,4.75
2023-04-11T03:54:51.627Z,4.81
2023-04-11T03:57:26.206Z,4.92
2023-04-11T04:00:01.187Z,4.97
2023-04-11T04:02:33.862Z,5.02
2023-04-11T04:05:10.648Z,4.96
2023-04-11T04:07:44.381Z,4.94
2023-04-11T04:10:25.969Z,4.98
2023-04-11T04:12:59.862Z,4.90
2023-04-11T04:15:40.695Z,4.97
2023-04-11T04:18:14.391Z,5.08
2023-04-11T04:20:51.636Z,5.07
2023-04-11T04:23:26.168Z,5.00
2023-04-11T04:26:17.302Z,4.92
2023-04-11T04:29:03.831Z,4.91
2023-04-11T04:31:56.207Z,4.95
2023-04-11T04:34:46.013Z,4.82
2023-04-11T04:37:23.556Z,4.78
2023-04-11T04:40:07.172Z,4.78
2023-04-11T04:42:44.188Z,4.78
2023-04-11T04:45:16.785Z,4.82
2023-04-11T04:47:49.918Z,4.77
2023-04-11T04:50:22.396Z,4.82
2023-04-11T04:52:54.885Z,4.76
2023-04-11T04:55:28.126Z,4.75
2023-04-11T04:58:00.947Z,4.69
2023-04-11T05:00:34.001Z,4.81
2023-04-11T05:03:10.169Z,4.62
2023-04-11T05:05:42.755Z,4.63
2023-04-11T05:08:18.015Z,4.74
2023-04-11T05:10:50.418Z,4.79
2023-04-11T05:13:22.842Z,4.54
2023-04-11T05:15:55.166Z,4.60
2023-04-11T05:18:31.672Z,4.67
2023-04-11T05:21:04.921Z,4.69
2023-04-11T05:23:41.829Z,4.73
2023-04-11T05:26:14.680Z,4.76
2023-04-11T05:28:47.277Z,4.79
2023-04-11T05:31:25.368Z,4.81
2023-04-11T05:33:58.690Z,4.80
2023-04-11T05:36:32.917Z,4.68
2023-04-11T05:39:06.426Z,4.76
2023-04-11T05:41:39.582Z,4.86
2023-04-11T05:44:11.865Z,4.97
2023-04-11T05:46:44.216Z,4.90
2023-04-11T05:49:17.180Z,4.93
2023-04-11T05:51:49.535Z,5.04
2023-04-11T05:54:32.364Z,5.16
2023-04-11T05:57:06.716Z,5.16
2023-04-11T05:59:39.115Z,5.06
2023-04-11T06:02:11.748Z,5.10
2023-04-11T06:04:45.219Z,5.27
2023-04-11T06:07:17.727Z,5.31
2023-04-11T06:09:50.179Z,5.42
2023-04-11T06:12:22.464Z,5.31
2023-04-11T06:14:54.766Z,5.35
2023-04-11T06:17:27.134Z,5.44
2023-04-11T06:20:01.758Z,5.51
2023-04-11T06:22:35.296Z,5.66
2023-04-11T06:25:08.633Z,5.66
2023-04-11T06:27:41.005Z,5.70
2023-04-11T06:30:13.930Z,5.78
2023-04-11T06:32:46.302Z,5.64
2023-04-11T06:35:19.775Z,5.65
2023-04-11T06:37:52.462Z,5.60
2023-04-11T06:40:24.759Z,5.41
2023-04-11T06:42:59.470Z,5.46
2023-04-11T06:45:31.839Z,5.63
2023-04-11T06:48:04.945Z,5.62
2023-04-11T06:50:38.508Z,5.63
2023-04-11T06:53:10.787Z,5.77
2023-04-11T06:55:43.109Z,5.95
2023-04-11T06:58:15.824Z,6.13
2023-04-11T07:00:48.108Z,6.34
2023-04-11T07:03:20.472Z,6.45
2023-04-11T07:05:53.486Z,6.60
2023-04-11T07:08:25.731Z,6.77
2023-04-11T07:10:58.020Z,6.95
2023-04-11T07:13:30.477Z,6.98
2023-04-11T07:16:02.801Z,6.97
2023-04-11T07:18:35.144Z,6.82
2023-04-11T07:21:11.184Z,6.89
2023-04-11T07:23:44.043Z,6.94
2023-04-11T07:26:17.172Z,6.95
2023-04-11T07:28:50.450Z,7.19
2023-04-11T07:31:22.872Z,7.27
2023-04-11T07:33:55.652Z,7.43
2023-04-11T07:36:28.837Z,7.19
2023-04-11T07:39:01.345Z,7.40
2023-04-11T07:41:33.680Z,7.48
2023-04-11T07:44:07.026Z,7.47
2023-04-11T07:46:39.356Z,7.38
2023-04-11T07:49:11.718Z,7.48
2023-04-11T07:51:44.815Z,7.64
2023-04-11T07:54:17.156Z,7.85
2023-04-11T07:56:49.424Z,7.95
2023-04-11T07:59:21.710Z,8.31
2023-04-11T08:02:04.127Z,8.62
2023-04-11T08:04:37.204Z,8.84
2023-04-11T08:07:10.740Z,8.96
2023-04-11T08:09:43.063Z,9.13
2023-04-11T08:12:16.022Z,9.33
2023-04-11T08:14:48.290Z,9.45
2023-04-11T08:17:27.870Z,9.35
2023-04-11T08:20:02.675Z,9.39
2023-04-11T08:22:35.821Z,8.96
2023-04-11T08:25:09.208Z,8.80
2023-04-11T08:27:41.545Z,8.55
2023-04-11T08:30:15.081Z,8.80
2023-04-11T08:32:47.512Z,8.88
2023-04-11T08:35:19.940Z,8.78
2023-04-11T08:37:52.979Z,8.85
2023-04-11T08:40:27.001Z,9.09
2023-04-11T08:42:59.764Z,9.03
2023-04-11T08:45:32.043Z,9.25
2023-04-11T08:48:05.816Z,9.30
2023-04-11T08:50:39.499Z,9.02
2023-04-11T08:53:14.086Z,8.80
2023-04-11T08:55:46.822Z,8.94
2023-04-11T08:58:19.519Z,9.24
2023-04-11T09:00:51.820Z,9.29
2023-04-11T09:03:24.185Z,9.44
2023-04-11T09:05:56.571Z,9.78
2023-04-11T09:08:38.022Z,9.65
2023-04-11T09:11:10.804Z,9.57
2023-04-11T09:13:43.092Z,9.77
2023-04-11T09:16:15.840Z,9.79
2023-04-11T09:18:48.264Z,9.63
2023-04-11T09:21:20.572Z,10.04
2023-04-11T09:23:54.523Z,10.05
2023-04-11T09:26:28.983Z,10.36
2023-04-11T09:29:01.335Z,10.50
2023-04-11T09:31:40.987Z,10.50
2023-04-11T09:34:13.219Z,10.36
2023-04-11T09:36:54.228Z,10.80
2023-04-11T09:39:28.771Z,11.04
2023-04-11T09:42:02.491Z,10.88
2023-04-11T09:44:36.317Z,10.74
2023-04-11T09:47:09.012Z,10.87
2023-04-11T09:49:42.580Z,10.88
2023-04-11T09:52:15.741Z,10.86
2023-04-11T09:54:50.707Z,10.95
2023-04-11T09:57:23.564Z,11.03
2023-04-11T09:59:56.569Z,10.99
2023-04-11T10:02:29.150Z,11.04
2023-04-11T10:05:03.591Z,11.26
2023-04-11T10:07:45.190Z,11.46
2023-04-11T10:10:23.496Z,11.77
2023-04-11T10:12:55.814Z,11.87
2023-04-11T10:15:29.287Z,11.51
2023-04-11T10:18:09.524Z,11.22
2023-04-11T10:20:44.532Z,11.46
2023-04-11T10:23:16.990Z,11.60
2023-04-11T10:25:59.583Z,11.54
2023-04-11T10:28:34.454Z,11.53
2023-04-11T10:31:09.312Z,11.24
2023-04-11T10:34:11.707Z,11.10
2023-04-11T10:37:03.182Z,11.17
2023-04-11T10:40:09.086Z,11.46
2023-04-11T10:42:43.232Z,11.55
2023-04-11T10:45:17.620Z,11.59
2023-04-11T10:48:07.365Z,11.61
2023-04-11T10:50:42.257Z,11.58
2023-04-11T10:53:41.619Z,11.65
2023-04-11T10:56:15.027Z,11.52
2023-04-11T10:58:51.154Z,11.51
2023-04-11T11:01:31.820Z,11.52
2023-04-11T11:04:10.339Z,11.60
2023-04-11T11:06:50.944Z,11.70
2023-04-11T11:09:28.095Z,11.72
2023-04-11T11:12:08.280Z,11.82
2023-04-11T11:14:42.850Z,12.04
2023-04-11T11:17:16.545Z,12.16
2023-04-11T11:19:48.908Z,11.94
2023-04-11T11:22:24.944Z,12.06
2023-04-11T11:25:07.546Z,11.91
2023-04-11T11:27:39.856Z,11.99
2023-04-11T11:30:15.090Z,11.83
2023-04-11T11:32:47.424Z,11.77
2023-04-11T11:35:20.109Z,11.65
2023-04-11T11:37:53.193Z,11.69
2023-04-11T11:40:25.728Z,11.80
2023-04-11T11:42:58.065Z,11.83
2023-04-11T11:45:32.784Z,11.97
2023-04-11T11:48:05.634Z,11.96
2023-04-11T11:50:37.978Z,11.89
2023-04-11T11:53:15.042Z,11.95
2023-04-11T11:55:47.610Z,11.88
2023-04-11T11:58:20.520Z,11.55
2023-04-11T12:00:54.036Z,11.52
2023-04-11T12:03:29.003Z,11.74
2023-04-11T12:06:01.496Z,11.72
2023-04-11T12:08:33.818Z,11.53
2023-04-11T12:11:12.047Z,11.91
2023-04-11T12:13:45.419Z,11.81
2023-04-11T12:16:21.534Z,11.75
2023-04-11T12:18:57.945Z,11.52
2023-04-11T12:21:30.867Z,11.67
2023-04-11T12:24:03.548Z,11.62
2023-04-11T12:26:36.105Z,11.65
2023-04-11T12:29:09.360Z,11.51
2023-04-11T12:31:44.449Z,11.47
2023-04-11T12:34:17.683Z,11.45
2023-04-11T12:36:50.030Z,11.62
2023-04-11T12:39:22.417Z,11.88
2023-04-11T12:41:54.762Z,12.27
2023-04-11T12:44:27.105Z,12.68
2023-04-11T12:47:00.292Z,12.71
2023-04-11T12:49:32.817Z,12.74
2023-04-11T12:52:05.561Z,12.13
2023-04-11T12:54:37.937Z,12.31
2023-04-11T12:57:11.721Z,12.19
2023-04-11T12:59:44.081Z,12.20
2023-04-11T13:02:17.287Z,11.76
2023-04-11T13:04:52.807Z,11.82
2023-04-11T13:07:25.241Z,11.70
2023-04-11T13:09:57.650Z,11.64
2023-04-11T13:12:30.678Z,11.31
2023-04-11T13:15:03.309Z,11.71
2023-04-11T13:17:36.468Z,11.93
2023-04-11T13:20:10.678Z,12.30
2023-04-11T13:22:43.581Z,12.68
2023-04-11T13:25:15.969Z,12.89
2023-04-11T13:27:48.322Z,13.12
2023-04-11T13:30:20.932Z,13.35
2023-04-11T13:32:54.002Z,13.27
2023-04-11T13:35:27.319Z,13.41
2023-04-11T13:38:00.104Z,13.47
2023-04-11T13:40:32.783Z,13.71
2023-04-11T13:43:05.217Z,13.86
2023-04-11T13:45:37.946Z,13.74
2023-04-11T13:48:11.228Z,13.61
2023-04-11T13:50:43.539Z,13.24
2023-04-11T13:53:15.989Z,13.25
2023-04-11T13:55:48.600Z,12.78
2023-04-11T13:58:21.029Z,12.81
2023-04-11T14:00:53.477Z,12.70
2023-04-11T14:03:29.525Z,12.70
2023-04-11T14:06:02.761Z,12.67
2023-04-11T14:08:36.484Z,12.76
2023-04-11T14:11:08.790Z,12.64
2023-04-11T14:13:41.208Z,12.23
2023-04-11T14:16:13.579Z,12.32
2023-04-11T14:18:46.596Z,12.15
2023-04-11T14:21:19.054Z,12.14
2023-04-11T14:23:51.491Z,12.21
2023-04-11T14:26:23.885Z,12.22
2023-04-11T14:28:56.205Z,12.27
2023-04-11T14:31:28.693Z,12.17
2023-04-11T14:34:01.798Z,12.17
2023-04-11T14:36:34.164Z,12.01
2023-04-11T14:39:06.718Z,11.82
2023-04-11T14:41:39.307Z,11.85
2023-04-11T14:44:12.220Z,11.90
2023-04-11T14:46:44.660Z,12.04
2023-04-11T14:49:17.821Z,11.94
2023-04-11T14:51:50.387Z,11.72
2023-04-11T14:54:23.821Z,11.58
2023-04-11T14:56:57.120Z,11.93
2023-04-11T14:59:30.238Z,11.90
2023-04-11T15:02:02.814Z,12.01
2023-04-11T15:04:36.009Z,12.12
2023-04-11T15:07:08.327Z,11.96
2023-04-11T15:09:40.805Z,11.74
2023-04-11T15:12:13.203Z,11.57
2023-04-11T15:14:45.656Z,11.54
2023-04-11T15:17:18.102Z,11.58
2023-04-11T15:19:51.128Z,11.46
2023-04-11T15:22:23.392Z,11.45
2023-04-11T15:24:55.620Z,11.28
2023-04-11T15:27:28.030Z,11.37
2023-04-11T15:30:01.702Z,11.41
2023-04-11T15:32:34.544Z,11.22
2023-04-11T15:35:08.402Z,11.41
2023-04-11T15:37:41.266Z,11.62
2023-04-11T15:40:14.603Z,11.06
2023-04-11T15:42:49.006Z,11.22
2023-04-11T15:45:21.357Z,11.14
2023-04-11T15:47:53.813Z,11.30
2023-04-11T15:50:28.316Z,11.32
2023-04-11T15:53:00.947Z,11.25
2023-04-11T15:55:34.797Z,11.40
2023-04-11T15:58:07.406Z,11.21
2023-04-11T16:00:41.574Z,11.06
2023-04-11T16:03:15.771Z,11.23
2023-04-11T16:05:52.241Z,11.14
2023-04-11T16:08:25.476Z,10.77
2023-04-11T16:10:57.759Z,10.78
2023-04-11T16:13:30.175Z,10.77
2023-04-11T16:16:02.589Z,10.73
2023-04-11T16:18:35.127Z,10.63
2023-04-11T16:21:13.110Z,10.50
2023-04-11T16:23:45.422Z,10.54
2023-04-11T16:26:17.866Z,10.41
2023-04-11T16:28:50.468Z,10.28
2023-04-11T16:31:24.251Z,10.27
2023-04-11T16:33:56.845Z,10.28
2023-04-11T16:36:30.259Z,10.11
2023-04-11T16:39:03.658Z,10.11
2023-04-11T16:41:35.979Z,9.79
2023-04-11T16:44:10.603Z,10.01
2023-04-11T16:46:43.635Z,10.05
2023-04-11T16:49:16.094Z,9.46
2023-04-11T16:51:49.108Z,9.57
2023-04-11T16:54:21.418Z,9.78
2023-04-11T16:56:53.763Z,9.79
2023-04-11T16:59:27.445Z,9.66
2023-04-11T17:02:00.180Z,9.56
2023-04-11T17:04:33.113Z,9.60
2023-04-11T17:07:06.369Z,9.54
2023-04-11T17:09:38.697Z,9.60
2023-04-11T17:12:11.078Z,9.69
2023-04-11T17:14:44.947Z,9.68
2023-04-11T17:17:17.241Z,9.68
2023-04-11T17:19:50.647Z,9.46
2023-04-11T17:22:23.675Z,9.30
2023-04-11T17:24:56.015Z,9.19
2023-04-11T17:27:29.231Z,9.28
2023-04-11T17:30:03.343Z,9.29
2023-04-11T17:32:36.898Z,9.13
2023-04-11T17:35:11.034Z,8.65
2023-04-11T17:37:44.491Z,8.56
2023-04-11T17:40:16.945Z,8.58
2023-04-11T17:42:49.384Z,8.65
2023-04-11T17:45:21.746Z,8.30
2023-04-11T17:47:54.142Z,8.44
2023-04-11T17:50:26.703Z,8.62
2023-04-11T17:52:59.912Z,8.69
2023-04-11T17:55:32.680Z,8.68
2023-04-11T17:58:05.446Z,8.76
2023-04-11T18:00:48.494Z,8.80
2023-04-11T18:03:27.917Z,8.69
2023-04-11T18:06:00.914Z,8.83
2023-04-11T18:08:49.640Z,8.84
2023-04-11T18:11:23.165Z,8.79
2023-04-11T18:13:55.913Z,8.54
2023-04-11T18:16:28.554Z,8.39
2023-04-11T18:19:00.917Z,8.61
2023-04-11T18:21:33.196Z,8.53
2023-04-11T18:24:06.642Z,8.42
2023-04-11T18:26:38.944Z,8.42
2023-04-11T18:29:11.210Z,8.52
2023-04-11T18:31:43.555Z,8.39
2023-04-11T18:34:16.068Z,8.48
2023-04-11T18:36:49.323Z,8.57
2023-04-11T18:39:22.938Z,8.49
2023-04-11T18:41:55.279Z,8.48
2023-04-11T18:44:27.821Z,8.44
2023-04-11T18:47:03.012Z,8.42
2023-04-11T18:49:37.339Z,8.49
2023-04-11T18:52:10.076Z,8.53
2023-04-11T18:54:44.082Z,8.45
2023-04-11T18:57:16.430Z,8.37
2023-04-11T18:59:50.564Z,8.42
2023-04-11T19:02:24.131Z,8.18
2023-04-11T19:04:56.975Z,8.41
2023-04-11T19:07:30.760Z,8.39
2023-04-11T19:10:05.518Z,8.52
2023-04-11T19:12:38.262Z,8.38
2023-04-11T19:15:11.994Z,8.50
2023-04-11T19:17:44.544Z,8.58
2023-04-11T19:20:18.338Z,8.40
2023-04-11T19:22:51.061Z,8.40
2023-04-11T19:25:24.304Z,8.54
2023-04-11T19:27:56.784Z,8.62
2023-04-11T19:30:29.185Z,8.63
2023-04-11T19:33:02.281Z,8.41
2023-04-11T19:35:34.785Z,8.59
2023-04-11T19:38:07.246Z,8.61
2023-04-11T19:40:40.366Z,8.28
2023-04-11T19:43:12.792Z,8.12
2023-04-11T19:45:45.720Z,8.08
2023-04-11T19:48:18.166Z,8.23
2023-04-11T19:50:51.537Z,8.17
2023-04-11T19:53:24.035Z,8.09
2023-04-11T19:55:58.947Z,7.97
2023-04-11T19:58:31.885Z,7.83
2023-04-11T20:01:04.804Z,7.76
2023-04-11T20:03:37.364Z,7.69
2023-04-11T20:06:11.575Z,7.58
2023-04-11T20:08:44.028Z,7.57
2023-04-11T20:11:21.343Z,7.44
2023-04-11T20:13:53.790Z,7.32
2023-04-11T20:16:26.098Z,7.25
2023-04-11T20:19:01.108Z,7.28
2023-04-11T20:21:33.490Z,7.26
2023-04-11T20:24:08.758Z,7.15
2023-04-11T20:26:41.790Z,7.15
2023-04-11T20:29:17.140Z,7.10
2023-04-11T20:31:49.462Z,7.27
2023-04-11T20:34:21.825Z,7.13
2023-04-11T20:36:55.157Z,7.12
2023-04-11T20:39:27.464Z,7.01
2023-04-11T20:42:01.082Z,7.12
2023-04-11T20:44:35.296Z,7.10
2023-04-11T20:47:08.416Z,7.10
2023-04-11T20:49:40.865Z,7.14
2023-04-11T20:52:13.211Z,6.98
2023-04-11T20:54:45.492Z,7.04
2023-04-11T20:57:18.442Z,7.18
2023-04-11T20:59:50.749Z,7.10
2023-04-11T21:02:23.434Z,6.98
2023-04-11T21:04:55.864Z,6.98
2023-04-11T21:07:28.150Z,6.99
2023-04-11T21:10:01.265Z,6.94
2023-04-11T21:12:34.693Z,6.92
2023-04-11T21:15:08.212Z,6.97
2023-04-11T21:17:40.552Z,7.01
2023-04-11T21:20:17.235Z,7.02
2023-04-11T21:22:52.044Z,6.97
2023-04-11T21:25:24.647Z,6.93
2023-04-11T21:27:57.612Z,6.92
2023-04-11T21:30:30.257Z,6.94
2023-04-11T21:33:02.606Z,7.03
2023-04-11T21:35:34.983Z,7.05
2023-04-11T21:38:07.958Z,6.90
2023-04-11T21:40:40.283Z,6.97
2023-04-11T21:43:13.261Z,7.00
2023-04-11T21:45:45.575Z,7.01
2023-04-11T21:48:18.000Z,6.82
2023-04-11T21:50:50.321Z,6.97
2023-04-11T21:53:22.591Z,7.04
2023-04-11T21:55:54.962Z,6.94
2023-04-11T21:58:29.885Z,6.82
2023-04-11T22:01:03.145Z,6.93
2023-04-11T22:03:39.456Z,6.84
2023-04-11T22:06:11.921Z,6.84
2023-04-11T22:08:49.468Z,6.83
2023-04-11T22:11:21.750Z,6.88
2023-04-11T22:13:56.807Z,6.86
2023-04-11T22:16:30.878Z,6.96
2023-04-11T22:19:03.309Z,7.07
2023-04-11T22:21:35.743Z,7.08
2023-04-11T22:24:08.652Z,6.96
2023-04-11T22:26:48.174Z,6.99
2023-04-11T22:29:21.444Z,6.94
2023-04-11T22:31:53.726Z,6.94
2023-04-11T22:34:26.098Z,6.95
2023-04-11T22:36:58.571Z,6.93
2023-04-11T22:39:30.930Z,6.95
2023-04-11T22:42:04.103Z,6.94
2023-04-11T22:44:37.088Z,6.94
2023-04-11T22:47:15.312Z,6.94
2023-04-11T22:49:47.605Z,6.99
2023-04-11T22:52:25.232Z,7.08
2023-04-11T22:54:57.504Z,7.10
2023-04-11T22:57:30.053Z,7.17
2023-04-11T23:00:06.643Z,7.08
2023-04-11T23:02:39.555Z,7.10
2023-04-11T23:05:11.923Z,7.05
2023-04-11T23:07:44.241Z,7.19
2023-04-11T23:10:18.162Z,7.14
2023-04-11T23:12:50.983Z,7.08
2023-04-11T23:15:23.924Z,7.15
2023-04-11T23:17:56.365Z,7.00
2023-04-11T23:20:28.716Z,6.94
2023-04-11T23:23:01.443Z,6.95
2023-04-11T23:25:38.084Z,6.97
2023-04-11T23:28:10.360Z,6.88
2023-04-11T23:30:43.858Z,7.02
2023-04-11T23:33:16.235Z,6.98
2023-04-11T23:35:48.583Z,7.04
2023-04-11T23:38:22.739Z,7.09
2023-04-11T23:40:55.565Z,6.91
2023-04-11T23:43:27.852Z,6.84
2023-04-11T23:46:00.957Z,6.94
2023-04-11T23:48:33.275Z,6.83
2023-04-11T23:51:06.605Z,6.79
2023-04-11T23:53:38.890Z,6.83
2023-04-11T23:56:12.106Z,6.70
2023-04-11T23:58:44.410Z,6.72
